»·PEaware :: N657NB KSBA-KCRQ

N657NB :: KSBA-KCRQ

FLIGHT INFORMATION

Flight Status: Arrived
Operator: Privately registered:
United States
More flights under this callsign
Pilot: David C. (25039)
Aircraft: PIPER PA-24 COMMANCHE
(PA24)
More flights by this aircraft type
Origin: KSBA Santa Barbara Mun
United States
Destination: KCRQ McClellan-Palomar
United States
More flights between these airports :: More routes between these airports
Route: HENER V186 DARTS V597 OCN
File this flight plan on PilotEdge
Remarks: TEC route SBAP24
Altitude:
(Current/Filed)
9,000ft
Speed:
(Current/Filed)
140kts
Departed: 24-Jun-19 12:25 AM
Arrived: 24-Jun-19 01:49 AM
Distance/Time
Traveled:
149nm/1:23
Distance/Time
To Go:
Arrived

Flight Plot

Page will automatically refresh every two minutes.


Map Options




Map Legend


Flown Route
Filed Route
Departure Airport
Arrival Airport
Navaid (VOR, NDB)
Fix

Horizontal Profiles

Position Reports

Time Latitude Longitude Heading Altitude Ground
Speed
24-Jun-19 00:10 34.422347 -119.836068 344 13ft 0kts
24-Jun-19 00:11 34.422349 -119.836068 344 13ft 0kts
24-Jun-19 00:12 34.422351 -119.836069 344 13ft 0kts
24-Jun-19 00:13 34.422354 -119.836070 344 13ft 0kts
24-Jun-19 00:14 34.422371 -119.836077 336 13ft 0kts
24-Jun-19 00:15 34.423808 -119.837453 346 13ft 10kts
24-Jun-19 00:16 34.426793 -119.838385 346 13ft 13kts
24-Jun-19 00:17 34.430500 -119.839544 351 13ft 2kts
24-Jun-19 00:18 34.430880 -119.839673 207 13ft 0kts
24-Jun-19 00:19 34.430878 -119.839674 207 13ft 0kts
24-Jun-19 00:20 34.430875 -119.839676 207 13ft 0kts
24-Jun-19 00:21 34.430871 -119.839678 207 13ft 0kts
24-Jun-19 00:22 34.430856 -119.839689 212 13ft 2kts
24-Jun-19 00:23 34.430507 -119.840284 164 13ft 0kts
24-Jun-19 00:24 34.412224 -119.833678 152 554ft 91kts
24-Jun-19 00:25 34.400740 -119.806677 87 1509ft 102kts
24-Jun-19 00:26 34.397174 -119.770271 99 2176ft 115kts
24-Jun-19 00:27 34.391295 -119.733267 96 2879ft 119kts
24-Jun-19 00:28 34.386649 -119.693764 95 3632ft 120kts
24-Jun-19 00:29 34.381971 -119.654340 97 4370ft 117kts
24-Jun-19 00:30 34.377487 -119.615242 97 5050ft 116kts
24-Jun-19 00:31 34.372873 -119.576522 98 5729ft 114kts
24-Jun-19 00:32 34.368207 -119.537924 98 6315ft 116kts
24-Jun-19 00:33 34.363806 -119.499836 99 6931ft 112kts
24-Jun-19 00:34 34.359140 -119.461841 98 7457ft 113kts
24-Jun-19 00:35 34.354791 -119.423860 98 7992ft 113kts
24-Jun-19 00:36 34.350444 -119.388881 98 8438ft 115kts
24-Jun-19 00:37 34.345971 -119.351010 97 8929ft 114kts
24-Jun-19 00:38 34.340926 -119.310034 98 9103ft 131kts
24-Jun-19 00:39 34.335247 -119.262610 98 9018ft 149kts
24-Jun-19 00:40 34.329873 -119.212575 90 9016ft 150kts
24-Jun-19 00:41 34.334906 -119.161891 81 9020ft 152kts
24-Jun-19 00:42 34.340261 -119.110250 85 9023ft 156kts
24-Jun-19 00:43 34.343780 -119.057918 84 9027ft 155kts
24-Jun-19 00:44 34.347566 -119.007291 84 9034ft 161kts
24-Jun-19 00:45 34.351274 -118.954044 84 9037ft 156kts
24-Jun-19 00:46 34.355302 -118.901989 84 9040ft 155kts
24-Jun-19 00:47 34.352674 -118.850667 116 9044ft 154kts
24-Jun-19 00:48 34.332202 -118.805366 116 9042ft 154kts
24-Jun-19 00:49 34.314829 -118.757680 113 9043ft 155kts
24-Jun-19 00:50 34.297771 -118.709664 112 9040ft 155kts
24-Jun-19 00:51 34.283041 -118.664887 112 9032ft 155kts
24-Jun-19 00:52 34.266366 -118.616596 114 9027ft 155kts
24-Jun-19 00:53 34.249671 -118.568389 112 9024ft 155kts
24-Jun-19 00:54 34.232391 -118.516908 112 9252ft 165kts
24-Jun-19 00:55 34.216519 -118.471059 112 9021ft 167kts
24-Jun-19 00:56 34.201626 -118.420252 109 9012ft 162kts
24-Jun-19 00:57 34.186869 -118.369813 111 9039ft 155kts
24-Jun-19 00:58 34.171527 -118.320626 112 9011ft 157kts
24-Jun-19 00:59 34.156398 -118.271445 111 9027ft 156kts
24-Jun-19 01:00 34.126265 -118.238490 171 9018ft 151kts
24-Jun-19 01:01 34.084864 -118.230298 163 9017ft 152kts
24-Jun-19 01:02 34.046858 -118.208027 152 9026ft 152kts
24-Jun-19 01:03 34.009314 -118.184246 157 9016ft 153kts
24-Jun-19 01:04 33.971020 -118.163001 155 9026ft 152kts
24-Jun-19 01:05 33.932754 -118.140592 155 9020ft 152kts
24-Jun-19 01:06 33.894574 -118.118391 156 9020ft 152kts
24-Jun-19 01:07 33.856112 -118.096791 156 9019ft 152kts
24-Jun-19 01:08 33.817893 -118.074559 156 9019ft 152kts
24-Jun-19 01:09 33.779572 -118.052576 155 9020ft 152kts
24-Jun-19 01:10 33.748825 -118.017506 131 9021ft 154kts
24-Jun-19 01:11 33.719802 -117.979534 136 9022ft 154kts
24-Jun-19 01:12 33.689189 -117.943418 136 9021ft 154kts
24-Jun-19 01:13 33.658623 -117.907302 137 9022ft 154kts
24-Jun-19 01:14 33.627873 -117.871310 137 9021ft 154kts
24-Jun-19 01:15 33.597316 -117.835040 137 9023ft 154kts
24-Jun-19 01:16 33.566538 -117.799073 137 9023ft 154kts
24-Jun-19 01:17 33.535982 -117.762973 136 9023ft 154kts
24-Jun-19 01:18 33.505248 -117.726875 136 9023ft 154kts
24-Jun-19 01:19 33.474597 -117.690831 136 9024ft 154kts
24-Jun-19 01:20 33.443859 -117.654871 136 9023ft 154kts
24-Jun-19 01:21 33.413108 -117.618875 136 9024ft 155kts
24-Jun-19 01:22 33.382115 -117.582682 136 9017ft 155kts
24-Jun-19 01:23 33.351259 -117.546623 136 9015ft 155kts
24-Jun-19 01:24 33.320333 -117.510572 136 9014ft 155kts
24-Jun-19 01:25 33.289406 -117.474516 136 9014ft 155kts
24-Jun-19 01:26 33.258474 -117.438459 136 9012ft 155kts
24-Jun-19 01:27 33.227710 -117.402238 134 9012ft 155kts
24-Jun-19 01:28 33.197733 -117.365121 134 9012ft 155kts
24-Jun-19 01:29 33.171003 -117.332589 134 9010ft 155kts
24-Jun-19 01:30 33.142172 -117.297057 134 8802ft 149kts
24-Jun-19 01:31 33.128573 -117.252375 72 7563ft 143kts
24-Jun-19 01:32 33.140581 -117.204771 62 6263ft 152kts
24-Jun-19 01:34 33.174660 -117.181455 353 5074ft 145kts
24-Jun-19 01:35 33.206657 -117.205615 322 4121ft 140kts
24-Jun-19 01:36 33.238555 -117.204207 50 4214ft 126kts
24-Jun-19 01:37 33.238700 -117.166036 120 4445ft 121kts
24-Jun-19 01:38 33.212984 -117.140661 133 4444ft 124kts
24-Jun-19 01:39 33.200984 -117.102840 91 4437ft 125kts
24-Jun-19 01:40 33.193361 -117.063708 129 4343ft 123kts
24-Jun-19 01:41 33.164024 -117.061501 222 3971ft 113kts
24-Jun-19 01:42 33.156405 -117.096058 276 3157ft 105kts
24-Jun-19 01:43 33.152492 -117.128426 261 2752ft 95kts
24-Jun-19 01:44 33.147931 -117.158283 261 2464ft 90kts
24-Jun-19 01:45 33.143178 -117.187660 261 1973ft 89kts
24-Jun-19 01:46 33.138451 -117.216988 260 1348ft 87kts
24-Jun-19 01:47 33.133934 -117.245349 263 846ft 86kts
24-Jun-19 01:48 33.129316 -117.273584 260 323ft 80kts
24-Jun-19 01:49 33.128574 -117.282811 359 303ft 7kts
24-Jun-19 01:50 33.128989 -117.281944 140 303ft 2kts
24-Jun-19 01:51 33.128930 -117.281916 173 303ft 0kts
24-Jun-19 01:52 33.128930 -117.281916 173 303ft 0kts
24-Jun-19 01:52 33.128930 -117.281916 173 303ft 0kts

Navigation Log

Ident Type
Flight plan parsing failed, navigation log unavailable